sensor_id;sensor_type;location;lat;lon;timestamp;temperature;humidity
52859;DHT22;38721;53.098;6.596;2023-04-01T00:00:57;10.70;99.90
52859;DHT22;38721;53.098;6.596;2023-04-01T00:03:26;10.80;99.90
52859;DHT22;38721;53.098;6.596;2023-04-01T00:05:53;10.80;99.90
52859;DHT22;38721;53.098;6.596;2023-04-01T00:08:27;10.80;99.90
52859;DHT22;38721;53.098;6.596;2023-04-01T00:10:53;10.80;99.90
52859;DHT22;38721;53.098;6.596;2023-04-01T00:13:19;10.80;99.90
52859;DHT22;38721;53.098;6.596;2023-04-01T00:15:49;10.80;99.90
52859;DHT22;38721;53.098;6.596;2023-04-01T00:18:15;10.90;99.90
52859;DHT22;38721;53.098;6.596;2023-04-01T00:20:49;10.80;99.90
52859;DHT22;38721;53.098;6.596;2023-04-01T00:23:16;10.80;99.90
52859;DHT22;38721;53.098;6.596;2023-04-01T00:25:42;10.80;99.90
52859;DHT22;38721;53.098;6.596;2023-04-01T00:28:08;10.80;99.90
52859;DHT22;38721;53.098;6.596;2023-04-01T00:30:35;10.80;99.90
52859;DHT22;38721;53.098;6.596;2023-04-01T00:33:01;10.80;99.90
52859;DHT22;38721;53.098;6.596;2023-04-01T00:35:30;10.80;99.90
52859;DHT22;38721;53.098;6.596;2023-04-01T00:37:58;10.80;99.90
52859;DHT22;38721;53.098;6.596;2023-04-01T00:40:33;10.70;99.90
52859;DHT22;38721;53.098;6.596;2023-04-01T00:42:59;10.80;99.90
52859;DHT22;38721;53.098;6.596;2023-04-01T00:45:37;10.80;99.90
52859;DHT22;38721;53.098;6.596;2023-04-01T00:48:10;10.80;99.90
52859;DHT22;38721;53.098;6.596;2023-04-01T00:50:37;10.80;99.90
52859;DHT22;38721;53.098;6.596;2023-04-01T00:53:05;10.80;99.90
52859;DHT22;38721;53.098;6.596;2023-04-01T00:55:35;10.80;99.90
52859;DHT22;38721;53.098;6.596;2023-04-01T00:58:04;10.80;99.90
52859;DHT22;38721;53.098;6.596;2023-04-01T01:00:33;10.80;99.90
52859;DHT22;38721;53.098;6.596;2023-04-01T01:03:02;10.80;99.90
52859;DHT22;38721;53.098;6.596;2023-04-01T01:06:05;10.70;99.90
52859;DHT22;38721;53.098;6.596;2023-04-01T01:11:16;10.70;99.90
52859;DHT22;38721;53.098;6.596;2023-04-01T01:13:57;10.70;99.90
52859;DHT22;38721;53.098;6.596;2023-04-01T01:16:30;10.70;99.90
52859;DHT22;38721;53.098;6.596;2023-04-01T01:27:21;10.60;99.90
52859;DHT22;38721;53.098;6.596;2023-04-01T01:30:12;10.50;99.90
52859;DHT22;38721;53.098;6.596;2023-04-01T01:35:50;10.50;99.90
52859;DHT22;38721;53.098;6.596;2023-04-01T01:38:27;10.50;99.90
52859;DHT22;38721;53.098;6.596;2023-04-01T01:40:58;10.40;99.90
52859;DHT22;38721;53.098;6.596;2023-04-01T01:43:29;10.50;99.90
52859;DHT22;38721;53.098;6.596;2023-04-01T01:46:01;10.50;99.90
52859;DHT22;38721;53.098;6.596;2023-04-01T01:48:29;10.60;99.90
52859;DHT22;38721;53.098;6.596;2023-04-01T01:50:56;10.60;99.90
52859;DHT22;38721;53.098;6.596;2023-04-01T01:53:25;10.60;99.90
52859;DHT22;38721;53.098;6.596;2023-04-01T01:55:56;10.60;99.90
52859;DHT22;38721;53.098;6.596;2023-04-01T01:58:27;10.60;99.90
52859;DHT22;38721;53.098;6.596;2023-04-01T02:01:10;10.70;99.90
52859;DHT22;38721;53.098;6.596;2023-04-01T02:03:39;10.70;99.90
52859;DHT22;38721;53.098;6.596;2023-04-01T02:06:08;10.70;99.90
52859;DHT22;38721;53.098;6.596;2023-04-01T02:09:02;10.70;99.90
52859;DHT22;38721;53.098;6.596;2023-04-01T02:11:40;10.70;99.90
52859;DHT22;38721;53.098;6.596;2023-04-01T02:14:13;10.70;99.90
52859;DHT22;38721;53.098;6.596;2023-04-01T02:16:55;10.70;99.90
52859;DHT22;38721;53.098;6.596;2023-04-01T02:19:26;10.70;99.90
52859;DHT22;38721;53.098;6.596;2023-04-01T02:21:56;10.80;99.90
52859;DHT22;38721;53.098;6.596;2023-04-01T02:24:25;10.80;99.90
52859;DHT22;38721;53.098;6.596;2023-04-01T02:26:52;10.80;99.90
52859;DHT22;38721;53.098;6.596;2023-04-01T02:29:20;10.80;99.90
52859;DHT22;38721;53.098;6.596;2023-04-01T02:31:50;10.80;99.90
52859;DHT22;38721;53.098;6.596;2023-04-01T02:34:16;10.80;99.90
52859;DHT22;38721;53.098;6.596;2023-04-01T02:36:42;10.80;99.90
52859;DHT22;38721;53.098;6.596;2023-04-01T02:39:09;10.80;99.90
52859;DHT22;38721;53.098;6.596;2023-04-01T02:41:42;10.80;99.90
52859;DHT22;38721;53.098;6.596;2023-04-01T02:44:13;10.80;99.90
52859;DHT22;38721;53.098;6.596;2023-04-01T02:46:39;10.80;99.90
52859;DHT22;38721;53.098;6.596;2023-04-01T02:49:05;10.80;99.90
52859;DHT22;38721;53.098;6.596;2023-04-01T02:51:32;10.80;99.90
52859;DHT22;38721;53.098;6.596;2023-04-01T02:54:01;10.80;99.90
52859;DHT22;38721;53.098;6.596;2023-04-01T02:56:27;10.90;99.90
52859;DHT22;38721;53.098;6.596;2023-04-01T02:58:53;10.90;99.90
52859;DHT22;38721;53.098;6.596;2023-04-01T03:01:19;10.90;99.90
52859;DHT22;38721;53.098;6.596;2023-04-01T03:03:45;10.90;99.90
52859;DHT22;38721;53.098;6.596;2023-04-01T03:06:14;10.80;99.90
52859;DHT22;38721;53.098;6.596;2023-04-01T03:08:40;10.80;99.90
52859;DHT22;38721;53.098;6.596;2023-04-01T03:11:06;10.90;99.90
52859;DHT22;38721;53.098;6.596;2023-04-01T03:13:33;10.80;99.90
52859;DHT22;38721;53.098;6.596;2023-04-01T03:15:58;10.80;99.90
52859;DHT22;38721;53.098;6.596;2023-04-01T03:18:27;10.80;99.90
52859;DHT22;38721;53.098;6.596;2023-04-01T03:20:56;10.90;99.90
52859;DHT22;38721;53.098;6.596;2023-04-01T03:23:24;10.90;99.90
52859;DHT22;38721;53.098;6.596;2023-04-01T03:25:50;10.80;99.90
52859;DHT22;38721;53.098;6.596;2023-04-01T03:28:16;10.80;99.90
52859;DHT22;38721;53.098;6.596;2023-04-01T03:30:44;10.80;99.90
52859;DHT22;38721;53.098;6.596;2023-04-01T03:33:10;10.80;99.90
52859;DHT22;38721;53.098;6.596;2023-04-01T03:35:36;10.80;99.90
52859;DHT22;38721;53.098;6.596;2023-04-01T03:38:02;10.90;99.90
52859;DHT22;38721;53.098;6.596;2023-04-01T03:40:30;10.80;99.90
52859;DHT22;38721;53.098;6.596;2023-04-01T03:43:02;10.80;99.90
52859;DHT22;38721;53.098;6.596;2023-04-01T03:45:29;10.80;99.90
52859;DHT22;38721;53.098;6.596;2023-04-01T03:47:54;10.80;99.90
52859;DHT22;38721;53.098;6.596;2023-04-01T03:50:20;10.80;99.90
52859;DHT22;38721;53.098;6.596;2023-04-01T03:52:46;10.80;99.90
52859;DHT22;38721;53.098;6.596;2023-04-01T03:55:14;10.80;99.90
52859;DHT22;38721;53.098;6.596;2023-04-01T03:57:40;10.80;99.90
52859;DHT22;38721;53.098;6.596;2023-04-01T04:00:07;10.80;99.90
52859;DHT22;38721;53.098;6.596;2023-04-01T04:02:34;10.80;99.90
52859;DHT22;38721;53.098;6.596;2023-04-01T04:05:01;10.80;99.90
52859;DHT22;38721;53.098;6.596;2023-04-01T04:07:26;10.80;99.90
52859;DHT22;38721;53.098;6.596;2023-04-01T04:09:52;10.80;99.90
52859;DHT22;38721;53.098;6.596;2023-04-01T04:12:21;10.80;99.90
52859;DHT22;38721;53.098;6.596;2023-04-01T04:14:46;10.80;99.90
52859;DHT22;38721;53.098;6.596;2023-04-01T04:17:12;10.80;99.90
52859;DHT22;38721;53.098;6.596;2023-04-01T04:19:42;10.80;99.90
52859;DHT22;38721;53.098;6.596;2023-04-01T04:22:08;10.80;99.90
52859;DHT22;38721;53.098;6.596;2023-04-01T04:24:37;10.80;99.90
52859;DHT22;38721;53.098;6.596;2023-04-01T04:27:03;10.80;99.90
52859;DHT22;38721;53.098;6.596;2023-04-01T04:29:29;10.80;99.90
52859;DHT22;38721;53.098;6.596;2023-04-01T04:31:55;10.80;99.90
52859;DHT22;38721;53.098;6.596;2023-04-01T04:34:21;10.80;99.90
52859;DHT22;38721;53.098;6.596;2023-04-01T04:36:48;10.80;99.90
52859;DHT22;38721;53.098;6.596;2023-04-01T04:39:14;10.90;99.90
52859;DHT22;38721;53.098;6.596;2023-04-01T04:41:40;10.90;99.90
52859;DHT22;38721;53.098;6.596;2023-04-01T04:44:06;10.80;99.90
52859;DHT22;38721;53.098;6.596;2023-04-01T04:46:34;10.80;99.90
52859;DHT22;38721;53.098;6.596;2023-04-01T04:48:59;10.90;99.90
52859;DHT22;38721;53.098;6.596;2023-04-01T04:51:25;10.80;99.90
52859;DHT22;38721;53.098;6.596;2023-04-01T04:53:51;10.80;99.90
52859;DHT22;38721;53.098;6.596;2023-04-01T04:56:21;10.80;99.90
52859;DHT22;38721;53.098;6.596;2023-04-01T04:58:48;10.80;99.90
52859;DHT22;38721;53.098;6.596;2023-04-01T05:01:15;10.80;99.90
52859;DHT22;38721;53.098;6.596;2023-04-01T05:03:41;10.90;99.90
52859;DHT22;38721;53.098;6.596;2023-04-01T05:06:08;10.90;99.90
52859;DHT22;38721;53.098;6.596;2023-04-01T05:08:34;10.80;99.90
52859;DHT22;38721;53.098;6.596;2023-04-01T05:11:02;10.90;99.90
52859;DHT22;38721;53.098;6.596;2023-04-01T05:13:28;10.80;99.90
52859;DHT22;38721;53.098;6.596;2023-04-01T05:15:54;10.80;99.90
52859;DHT22;38721;53.098;6.596;2023-04-01T05:18:21;10.90;99.90
52859;DHT22;38721;53.098;6.596;2023-04-01T05:20:52;10.80;99.90
52859;DHT22;38721;53.098;6.596;2023-04-01T05:23:18;10.90;99.90
52859;DHT22;38721;53.098;6.596;2023-04-01T05:25:47;10.90;99.90
52859;DHT22;38721;53.098;6.596;2023-04-01T05:28:13;10.90;99.90
52859;DHT22;38721;53.098;6.596;2023-04-01T05:30:42;10.90;99.90
52859;DHT22;38721;53.098;6.596;2023-04-01T05:33:09;10.90;99.90
52859;DHT22;38721;53.098;6.596;2023-04-01T05:35:35;10.90;99.90
52859;DHT22;38721;53.098;6.596;2023-04-01T05:38:02;10.90;99.90
52859;DHT22;38721;53.098;6.596;2023-04-01T05:40:28;10.90;99.90
52859;DHT22;38721;53.098;6.596;2023-04-01T05:42:54;10.90;99.90
52859;DHT22;38721;53.098;6.596;2023-04-01T05:45:19;10.90;99.90
52859;DHT22;38721;53.098;6.596;2023-04-01T05:47:45;10.80;99.90
52859;DHT22;38721;53.098;6.596;2023-04-01T05:50:14;10.90;99.90
52859;DHT22;38721;53.098;6.596;2023-04-01T05:52:40;10.80;99.90
52859;DHT22;38721;53.098;6.596;2023-04-01T05:55:06;10.90;99.90
52859;DHT22;38721;53.098;6.596;2023-04-01T05:57:32;10.90;99.90
52859;DHT22;38721;53.098;6.596;2023-04-01T05:59:58;10.90;99.90
52859;DHT22;38721;53.098;6.596;2023-04-01T06:02:29;10.90;99.90
52859;DHT22;38721;53.098;6.596;2023-04-01T06:05:03;10.90;99.90
52859;DHT22;38721;53.098;6.596;2023-04-01T06:07:35;10.90;99.90
52859;DHT22;38721;53.098;6.596;2023-04-01T06:10:01;10.90;99.90
52859;DHT22;38721;53.098;6.596;2023-04-01T06:20:32;11.00;99.90
52859;DHT22;38721;53.098;6.596;2023-04-01T06:34:21;11.00;99.90
52859;DHT22;38721;53.098;6.596;2023-04-01T06:36:54;11.10;99.90
52859;DHT22;38721;53.098;6.596;2023-04-01T06:47:30;11.10;99.90
52859;DHT22;38721;53.098;6.596;2023-04-01T06:50:24;11.10;99.90
52859;DHT22;38721;53.098;6.596;2023-04-01T06:56:15;11.10;99.90
52859;DHT22;38721;53.098;6.596;2023-04-01T06:58:52;11.10;99.90
52859;DHT22;38721;53.098;6.596;2023-04-01T07:01:34;11.10;99.90
52859;DHT22;38721;53.098;6.596;2023-04-01T07:04:34;11.00;99.90
52859;DHT22;38721;53.098;6.596;2023-04-01T07:07:29;11.10;99.90
52859;DHT22;38721;53.098;6.596;2023-04-01T07:09:57;11.10;99.90
52859;DHT22;38721;53.098;6.596;2023-04-01T07:12:38;11.00;99.90
52859;DHT22;38721;53.098;6.596;2023-04-01T07:15:26;11.00;99.90
52859;DHT22;38721;53.098;6.596;2023-04-01T07:17:57;11.10;99.90
52859;DHT22;38721;53.098;6.596;2023-04-01T07:20:32;11.10;99.90
52859;DHT22;38721;53.098;6.596;2023-04-01T07:23:03;11.10;99.90
52859;DHT22;38721;53.098;6.596;2023-04-01T07:25:37;11.20;99.90
52859;DHT22;38721;53.098;6.596;2023-04-01T07:28:15;11.10;99.90
52859;DHT22;38721;53.098;6.596;2023-04-01T07:31:00;11.10;99.90
52859;DHT22;38721;53.098;6.596;2023-04-01T07:45:01;11.20;99.90
52859;DHT22;38721;53.098;6.596;2023-04-01T07:50:39;11.10;99.90
52859;DHT22;38721;53.098;6.596;2023-04-01T07:57:20;11.30;99.90
52859;DHT22;38721;53.098;6.596;2023-04-01T08:05:26;11.40;99.90
52859;DHT22;38721;53.098;6.596;2023-04-01T08:08:02;11.40;99.90
52859;DHT22;38721;53.098;6.596;2023-04-01T08:11:35;11.50;99.90
52859;DHT22;38721;53.098;6.596;2023-04-01T08:14:00;11.50;99.90
52859;DHT22;38721;53.098;6.596;2023-04-01T08:22:27;11.50;99.90
52859;DHT22;38721;53.098;6.596;2023-04-01T08:24:57;11.60;99.90
52859;DHT22;38721;53.098;6.596;2023-04-01T08:27:37;11.80;99.90
52859;DHT22;38721;53.098;6.596;2023-04-01T08:30:15;11.80;99.90
52859;DHT22;38721;53.098;6.596;2023-04-01T08:32:47;11.80;99.90
52859;DHT22;38721;53.098;6.596;2023-04-01T08:37:47;11.80;99.90
52859;DHT22;38721;53.098;6.596;2023-04-01T08:40:37;11.90;99.90
52859;DHT22;38721;53.098;6.596;2023-04-01T08:46:02;12.40;99.90
52859;DHT22;38721;53.098;6.596;2023-04-01T08:54:13;12.70;99.90
52859;DHT22;38721;53.098;6.596;2023-04-01T08:56:52;12.90;99.90
52859;DHT22;38721;53.098;6.596;2023-04-01T09:08:08;12.50;99.90
52859;DHT22;38721;53.098;6.596;2023-04-01T09:27:56;12.70;99.90
52859;DHT22;38721;53.098;6.596;2023-04-01T09:30:34;12.50;99.90
52859;DHT22;38721;53.098;6.596;2023-04-01T09:33:33;12.50;99.90
52859;DHT22;38721;53.098;6.596;2023-04-01T09:36:07;12.20;99.90
52859;DHT22;38721;53.098;6.596;2023-04-01T09:41:31;12.20;99.90
52859;DHT22;38721;53.098;6.596;2023-04-01T09:44:22;12.20;99.90
52859;DHT22;38721;53.098;6.596;2023-04-01T09:46:57;12.10;99.90
52859;DHT22;38721;53.098;6.596;2023-04-01T09:52:13;11.70;99.90
52859;DHT22;38721;53.098;6.596;2023-04-01T10:06:51;11.40;99.90
52859;DHT22;38721;53.098;6.596;2023-04-01T10:21:29;11.30;99.90
52859;DHT22;38721;53.098;6.596;2023-04-01T10:24:38;11.20;99.90
52859;DHT22;38721;53.098;6.596;2023-04-01T10:27:14;11.20;99.90
52859;DHT22;38721;53.098;6.596;2023-04-01T10:33:06;11.00;99.90
52859;DHT22;38721;53.098;6.596;2023-04-01T10:41:14;11.10;99.90
52859;DHT22;38721;53.098;6.596;2023-04-01T11:50:34;11.40;99.90
52859;DHT22;38721;53.098;6.596;2023-04-01T11:56:27;11.60;99.90
52859;DHT22;38721;53.098;6.596;2023-04-01T11:59:25;11.50;99.90
52859;DHT22;38721;53.098;6.596;2023-04-01T12:05:07;11.60;99.90
52859;DHT22;38721;53.098;6.596;2023-04-01T12:10:54;12.00;99.90
52859;DHT22;38721;53.098;6.596;2023-04-01T12:19:29;11.70;99.90
52859;DHT22;38721;53.098;6.596;2023-04-01T12:27:59;11.10;99.90
52859;DHT22;38721;53.098;6.596;2023-04-01T12:31:12;11.20;99.90
52859;DHT22;38721;53.098;6.596;2023-04-01T12:36:37;11.00;99.90
52859;DHT22;38721;53.098;6.596;2023-04-01T12:39:22;11.00;99.90
52859;DHT22;38721;53.098;6.596;2023-04-01T12:44:57;10.90;99.90
52859;DHT22;38721;53.098;6.596;2023-04-01T12:53:18;10.90;99.90
52859;DHT22;38721;53.098;6.596;2023-04-01T12:55:51;10.80;99.90
52859;DHT22;38721;53.098;6.596;2023-04-01T12:58:48;10.90;99.90
52859;DHT22;38721;53.098;6.596;2023-04-01T13:18:16;10.70;99.90
52859;DHT22;38721;53.098;6.596;2023-04-01T13:26:01;11.00;99.90
52859;DHT22;38721;53.098;6.596;2023-04-01T13:28:51;10.90;99.90
52859;DHT22;38721;53.098;6.596;2023-04-01T13:34:27;10.70;99.90
52859;DHT22;38721;53.098;6.596;2023-04-01T13:42:43;10.30;99.90
52859;DHT22;38721;53.098;6.596;2023-04-01T14:13:31;10.00;99.90
52859;DHT22;38721;53.098;6.596;2023-04-01T14:21:43;10.10;99.90
52859;DHT22;38721;53.098;6.596;2023-04-01T14:33:05;9.90;99.90
52859;DHT22;38721;53.098;6.596;2023-04-01T14:38:47;9.90;99.90
52859;DHT22;38721;53.098;6.596;2023-04-01T14:49:46;9.80;99.90
52859;DHT22;38721;53.098;6.596;2023-04-01T14:52:31;9.80;99.90
52859;DHT22;38721;53.098;6.596;2023-04-01T14:55:01;9.70;99.90
52859;DHT22;38721;53.098;6.596;2023-04-01T14:57:36;9.70;99.90
52859;DHT22;38721;53.098;6.596;2023-04-01T15:00:17;9.60;99.90
52859;DHT22;38721;53.098;6.596;2023-04-01T15:08:11;9.60;99.90
52859;DHT22;38721;53.098;6.596;2023-04-01T15:10:41;9.60;99.90
52859;DHT22;38721;53.098;6.596;2023-04-01T15:33:12;9.10;99.90
52859;DHT22;38721;53.098;6.596;2023-04-01T15:35:57;9.30;99.90
52859;DHT22;38721;53.098;6.596;2023-04-01T15:38:58;9.10;99.90
52859;DHT22;38721;53.098;6.596;2023-04-01T15:42:19;8.90;99.90
52859;DHT22;38721;53.098;6.596;2023-04-01T15:47:36;8.90;99.90
52859;DHT22;38721;53.098;6.596;2023-04-01T16:07:55;8.70;99.90
52859;DHT22;38721;53.098;6.596;2023-04-01T16:10:38;8.70;99.90
52859;DHT22;38721;53.098;6.596;2023-04-01T16:13:37;8.60;99.90
52859;DHT22;38721;53.098;6.596;2023-04-01T16:19:33;8.50;99.90
52859;DHT22;38721;53.098;6.596;2023-04-01T16:22:31;8.40;99.90
52859;DHT22;38721;53.098;6.596;2023-04-01T16:25:36;8.30;99.90
52859;DHT22;38721;53.098;6.596;2023-04-01T16:28:27;8.30;99.90
52859;DHT22;38721;53.098;6.596;2023-04-01T16:31:05;8.10;99.90
52859;DHT22;38721;53.098;6.596;2023-04-01T16:36:47;8.10;99.90
52859;DHT22;38721;53.098;6.596;2023-04-01T16:39:54;8.10;99.90
52859;DHT22;38721;53.098;6.596;2023-04-01T16:42:53;8.10;99.90
52859;DHT22;38721;53.098;6.596;2023-04-01T16:47:53;8.00;99.90
52859;DHT22;38721;53.098;6.596;2023-04-01T16:50:52;8.00;99.90
52859;DHT22;38721;53.098;6.596;2023-04-01T16:58:34;7.90;99.90
52859;DHT22;38721;53.098;6.596;2023-04-01T17:01:05;7.90;99.90
52859;DHT22;38721;53.098;6.596;2023-04-01T17:03:38;7.80;99.90
52859;DHT22;38721;53.098;6.596;2023-04-01T17:09:05;7.90;99.90
52859;DHT22;38721;53.098;6.596;2023-04-01T17:11:45;7.80;99.90
52859;DHT22;38721;53.098;6.596;2023-04-01T17:14:29;7.90;99.90
52859;DHT22;38721;53.098;6.596;2023-04-01T17:17:15;7.80;99.90
52859;DHT22;38721;53.098;6.596;2023-04-01T17:22:52;7.60;99.90
52859;DHT22;38721;53.098;6.596;2023-04-01T17:25:29;7.60;99.90
52859;DHT22;38721;53.098;6.596;2023-04-01T17:30:55;7.60;99.90
52859;DHT22;38721;53.098;6.596;2023-04-01T17:33:34;7.60;99.90
52859;DHT22;38721;53.098;6.596;2023-04-01T17:41:48;7.50;99.90
52859;DHT22;38721;53.098;6.596;2023-04-01T17:50:15;7.40;99.90
52859;DHT22;38721;53.098;6.596;2023-04-01T17:53:02;7.40;99.90
52859;DHT22;38721;53.098;6.596;2023-04-01T17:55:41;7.30;99.90
52859;DHT22;38721;53.098;6.596;2023-04-01T17:58:21;7.30;99.90
52859;DHT22;38721;53.098;6.596;2023-04-01T18:06:26;7.30;99.90
52859;DHT22;38721;53.098;6.596;2023-04-01T18:20:16;7.20;99.90
52859;DHT22;38721;53.098;6.596;2023-04-01T18:23:03;7.10;99.90
52859;DHT22;38721;53.098;6.596;2023-04-01T18:25:40;7.10;99.90
52859;DHT22;38721;53.098;6.596;2023-04-01T18:36:36;7.10;99.90
52859;DHT22;38721;53.098;6.596;2023-04-01T18:48:39;7.00;99.90
52859;DHT22;38721;53.098;6.596;2023-04-01T18:54:33;7.00;99.90
52859;DHT22;38721;53.098;6.596;2023-04-01T18:57:14;6.90;99.90
52859;DHT22;38721;53.098;6.596;2023-04-01T19:02:45;6.90;99.90
52859;DHT22;38721;53.098;6.596;2023-04-01T19:07:56;6.80;99.90
52859;DHT22;38721;53.098;6.596;2023-04-01T19:19:53;6.80;99.90
52859;DHT22;38721;53.098;6.596;2023-04-01T19:25:29;6.70;99.90
52859;DHT22;38721;53.098;6.596;2023-04-01T19:36:58;6.60;99.90
52859;DHT22;38721;53.098;6.596;2023-04-01T19:53:19;6.50;99.90
52859;DHT22;38721;53.098;6.596;2023-04-01T19:55:54;6.30;99.90
52859;DHT22;38721;53.098;6.596;2023-04-01T20:01:04;6.30;99.90
52859;DHT22;38721;53.098;6.596;2023-04-01T20:06:25;6.30;99.90
52859;DHT22;38721;53.098;6.596;2023-04-01T20:17:15;6.10;99.90
52859;DHT22;38721;53.098;6.596;2023-04-01T20:19:53;6.10;99.90
52859;DHT22;38721;53.098;6.596;2023-04-01T20:22:37;6.10;99.90
52859;DHT22;38721;53.098;6.596;2023-04-01T20:25:32;6.10;99.90
52859;DHT22;38721;53.098;6.596;2023-04-01T20:37:23;6.00;99.90
52859;DHT22;38721;53.098;6.596;2023-04-01T20:40:12;6.00;99.90
52859;DHT22;38721;53.098;6.596;2023-04-01T20:51:10;6.00;99.90
52859;DHT22;38721;53.098;6.596;2023-04-01T21:05:24;5.90;99.90
52859;DHT22;38721;53.098;6.596;2023-04-01T21:08:02;5.90;99.90
52859;DHT22;38721;53.098;6.596;2023-04-01T21:10:46;5.90;99.90
52859;DHT22;38721;53.098;6.596;2023-04-01T21:16:03;5.80;99.90
52859;DHT22;38721;53.098;6.596;2023-04-01T21:18:49;5.80;99.90
52859;DHT22;38721;53.098;6.596;2023-04-01T21:21:33;5.90;99.90
52859;DHT22;38721;53.098;6.596;2023-04-01T21:27:05;5.80;99.90
52859;DHT22;38721;53.098;6.596;2023-04-01T21:29:55;5.80;99.90
52859;DHT22;38721;53.098;6.596;2023-04-01T21:47:44;5.70;99.90
52859;DHT22;38721;53.098;6.596;2023-04-01T21:52:55;5.70;99.90
52859;DHT22;38721;53.098;6.596;2023-04-01T22:01:38;5.70;99.90
52859;DHT22;38721;53.098;6.596;2023-04-01T22:07:18;5.70;99.90
52859;DHT22;38721;53.098;6.596;2023-04-01T22:09:57;5.60;99.90
52859;DHT22;38721;53.098;6.596;2023-04-01T22:12:39;5.60;99.90
52859;DHT22;38721;53.098;6.596;2023-04-01T22:20:38;5.50;99.90
52859;DHT22;38721;53.098;6.596;2023-04-01T22:23:31;5.50;99.90
52859;DHT22;38721;53.098;6.596;2023-04-01T22:26:46;5.50;99.90
52859;DHT22;38721;53.098;6.596;2023-04-01T22:29:26;5.40;99.90
52859;DHT22;38721;53.098;6.596;2023-04-01T22:32:23;5.30;99.90
52859;DHT22;38721;53.098;6.596;2023-04-01T22:37:51;5.40;99.90
52859;DHT22;38721;53.098;6.596;2023-04-01T22:40:40;5.30;99.90
52859;DHT22;38721;53.098;6.596;2023-04-01T22:51:22;5.10;99.90
52859;DHT22;38721;53.098;6.596;2023-04-01T22:54:08;5.10;99.90
52859;DHT22;38721;53.098;6.596;2023-04-01T22:56:41;5.00;99.90
52859;DHT22;38721;53.098;6.596;2023-04-01T23:01:56;5.00;99.90
52859;DHT22;38721;53.098;6.596;2023-04-01T23:04:27;5.00;99.90
52859;DHT22;38721;53.098;6.596;2023-04-01T23:06:59;5.00;99.90
52859;DHT22;38721;53.098;6.596;2023-04-01T23:09:36;4.90;99.90
52859;DHT22;38721;53.098;6.596;2023-04-01T23:12:12;4.90;99.90
52859;DHT22;38721;53.098;6.596;2023-04-01T23:14:46;4.90;99.90
52859;DHT22;38721;53.098;6.596;2023-04-01T23:17:32;5.00;99.90
52859;DHT22;38721;53.098;6.596;2023-04-01T23:22:59;4.90;99.90
52859;DHT22;38721;53.098;6.596;2023-04-01T23:31:03;4.90;99.90
52859;DHT22;38721;53.098;6.596;2023-04-01T23:33:30;4.90;99.90
52859;DHT22;38721;53.098;6.596;2023-04-01T23:36:02;4.90;99.90
52859;DHT22;38721;53.098;6.596;2023-04-01T23:38:36;4.90;99.90
52859;DHT22;38721;53.098;6.596;2023-04-01T23:41:04;4.80;99.90
52859;DHT22;38721;53.098;6.596;2023-04-01T23:43:37;4.90;99.90
52859;DHT22;38721;53.098;6.596;2023-04-01T23:46:05;4.90;99.90
52859;DHT22;38721;53.098;6.596;2023-04-01T23:48:44;4.80;99.90
52859;DHT22;38721;53.098;6.596;2023-04-01T23:51:38;4.80;99.90
52859;DHT22;38721;53.098;6.596;2023-04-01T23:54:13;4.70;99.90
52859;DHT22;38721;53.098;6.596;2023-04-01T23:56:53;4.70;99.90
